createdAt,value
2022-10-11T00:00:14.710Z,69.63
2022-10-11T00:03:04.145Z,69.53
2022-10-11T00:05:33.061Z,69.48
2022-10-11T00:08:01.564Z,69.47
2022-10-11T00:10:30.202Z,69.49
2022-10-11T00:12:59.397Z,69.44
2022-10-11T00:15:28.136Z,69.42
2022-10-11T00:17:59.375Z,69.76
2022-10-11T00:20:30.959Z,69.71
2022-10-11T00:22:59.624Z,69.52
2022-10-11T00:25:28.153Z,69.67
2022-10-11T00:27:56.583Z,69.54
2022-10-11T00:30:25.930Z,69.70
2022-10-11T00:32:54.936Z,69.74
2022-10-11T00:35:26.102Z,70.01
2022-10-11T00:37:57.192Z,69.92
2022-10-11T00:40:27.131Z,69.93
2022-10-11T00:42:55.593Z,69.65
2022-10-11T00:46:02.714Z,69.88
2022-10-11T00:48:39.249Z,70.04
2022-10-11T00:51:13.983Z,69.67
2022-10-11T00:53:43.297Z,69.78
2022-10-11T00:56:20.523Z,69.85
2022-10-11T00:58:49.584Z,69.98
2022-10-11T01:01:18.398Z,69.97
2022-10-11T01:03:47.140Z,70.22
2022-10-11T01:06:15.679Z,70.21
2022-10-11T01:08:44.646Z,69.91
2022-10-11T01:50:21.925Z,70.66
2022-10-11T01:52:51.272Z,70.58
2022-10-11T01:55:30.718Z,70.68
2022-10-11T01:58:13.143Z,70.50
2022-10-11T02:00:50.577Z,70.02
2022-10-11T02:03:28.851Z,70.70
2022-10-11T02:06:03.349Z,70.22
2022-10-11T02:08:38.943Z,70.40
2022-10-11T02:11:11.450Z,70.82
2022-10-11T02:13:42.137Z,70.74
2022-10-11T02:16:14.369Z,70.74
2022-10-11T02:18:49.119Z,71.08
2022-10-11T02:21:22.018Z,71.01
2022-10-11T02:23:53.850Z,70.93
2022-10-11T02:26:27.145Z,70.67
2022-10-11T02:29:00.567Z,70.87
2022-10-11T02:31:38.264Z,70.92
2022-10-11T02:34:11.585Z,70.91
2022-10-11T02:36:47.821Z,70.97
2022-10-11T02:39:23.584Z,71.15
2022-10-11T02:42:01.822Z,71.01
2022-10-11T02:44:35.279Z,71.16
2022-10-11T02:47:06.059Z,71.45
2022-10-11T02:49:35.686Z,71.41
2022-10-11T02:52:06.139Z,71.47
2022-10-11T02:54:35.147Z,71.58
2022-10-11T02:57:03.666Z,71.57
2022-10-11T02:59:34.801Z,71.29
2022-10-11T03:02:03.243Z,71.40
2022-10-11T03:04:32.090Z,71.35
2022-10-11T03:07:00.864Z,71.65
2022-10-11T03:09:29.334Z,71.73
2022-10-11T03:11:57.814Z,71.57
2022-10-11T03:14:28.752Z,71.50
2022-10-11T03:17:12.293Z,71.45
2022-10-11T03:19:48.550Z,71.77
2022-10-11T03:22:19.815Z,71.58
2022-10-11T03:24:48.246Z,71.75
2022-10-11T03:27:16.656Z,71.66
2022-10-11T03:29:45.228Z,71.79
2022-10-11T03:32:13.651Z,71.66
2022-10-11T03:34:42.088Z,71.80
2022-10-11T03:37:11.106Z,72.19
2022-10-11T03:39:39.576Z,71.96
2022-10-11T03:42:07.951Z,72.14
2022-10-11T03:44:36.394Z,72.03
2022-10-11T03:47:10.165Z,71.87
2022-10-11T03:49:43.252Z,71.90
2022-10-11T03:52:12.626Z,72.11
2022-10-11T03:54:41.396Z,72.18
2022-10-11T03:57:12.352Z,72.46
2022-10-11T03:59:40.951Z,72.23
2022-10-11T04:02:09.602Z,72.01
2022-10-11T04:04:38.144Z,72.40
2022-10-11T04:07:06.895Z,72.39
2022-10-11T04:09:35.588Z,72.44
2022-10-11T04:12:04.516Z,72.65
2022-10-11T04:14:33.376Z,72.74
2022-10-11T04:17:02.152Z,72.73
2022-10-11T04:19:33.410Z,72.39
2022-10-11T04:22:02.226Z,72.26
2022-10-11T04:24:31.697Z,72.59
2022-10-11T04:27:00.486Z,72.52
2022-10-11T04:29:32.551Z,72.74
2022-10-11T04:32:01.490Z,72.54
2022-10-11T04:34:30.856Z,72.62
2022-10-11T04:36:59.477Z,72.59
2022-10-11T04:39:28.550Z,72.59
2022-10-11T04:41:57.222Z,72.67
2022-10-11T04:44:26.769Z,72.82
2022-10-11T04:46:55.709Z,72.29
2022-10-11T04:49:27.271Z,72.75
2022-10-11T04:51:55.948Z,72.61
2022-10-11T04:54:26.481Z,72.61
2022-10-11T04:56:55.179Z,72.63
2022-10-11T04:59:27.124Z,72.62
2022-10-11T05:01:55.963Z,72.42
2022-10-11T05:04:27.384Z,72.76
2022-10-11T05:06:55.988Z,72.90
2022-10-11T05:09:26.318Z,72.85
2022-10-11T05:11:55.176Z,72.89
2022-10-11T05:14:26.509Z,72.65
2022-10-11T05:16:55.298Z,73.17
2022-10-11T05:19:24.111Z,73.23
2022-10-11T05:21:54.523Z,72.83
2022-10-11T05:24:23.645Z,73.17
2022-10-11T05:26:53.855Z,73.12
2022-10-11T05:29:22.469Z,73.43
2022-10-11T05:31:52.142Z,73.41
2022-10-11T05:34:20.954Z,73.24
2022-10-11T05:36:49.721Z,73.41
2022-10-11T05:39:18.480Z,73.41
2022-10-11T05:41:47.188Z,73.69
2022-10-11T05:44:15.616Z,73.83
2022-10-11T05:46:44.432Z,73.89
2022-10-11T05:49:13.240Z,73.63
2022-10-11T05:51:42.144Z,74.05
2022-10-11T05:54:10.929Z,74.23
2022-10-11T05:56:39.648Z,74.14
2022-10-11T05:59:08.184Z,74.47
2022-10-11T06:01:39.512Z,74.22
2022-10-11T06:04:09.376Z,74.21
2022-10-11T06:06:38.334Z,74.48
2022-10-11T06:09:06.989Z,74.77
2022-10-11T06:11:40.839Z,74.50
2022-10-11T06:14:10.967Z,74.97
2022-10-11T06:16:40.470Z,74.75
2022-10-11T06:19:09.075Z,74.68
2022-10-11T06:21:37.846Z,75.11
2022-10-11T06:24:08.807Z,74.80
2022-10-11T06:26:38.702Z,75.34
2022-10-11T06:29:07.721Z,74.95
2022-10-11T06:31:41.094Z,75.28
2022-10-11T06:34:09.839Z,74.45
2022-10-11T06:36:38.494Z,74.47
2022-10-11T06:39:07.234Z,74.46
2022-10-11T06:41:38.602Z,74.75
2022-10-11T06:44:09.693Z,74.57
2022-10-11T06:46:42.420Z,75.22
2022-10-11T06:49:11.275Z,74.04
2022-10-11T06:51:40.112Z,74.12
2022-10-11T06:54:08.764Z,74.16
2022-10-11T06:56:37.788Z,74.81
2022-10-11T06:59:06.600Z,73.93
2022-10-11T07:01:41.407Z,74.13
2022-10-11T07:04:10.327Z,74.47
2022-10-11T07:06:40.554Z,73.41
2022-10-11T07:09:09.832Z,74.11
2022-10-11T07:11:41.415Z,74.24
2022-10-11T07:14:10.628Z,73.30
2022-10-11T07:16:40.469Z,73.77
2022-10-11T07:19:09.964Z,73.39
2022-10-11T07:21:38.516Z,74.03
2022-10-11T07:24:08.092Z,73.81
2022-10-11T07:26:39.332Z,73.45
2022-10-11T07:29:10.655Z,73.79
2022-10-11T07:31:42.778Z,72.92
2022-10-11T07:34:11.531Z,73.52
2022-10-11T07:36:40.129Z,73.33
2022-10-11T07:39:09.245Z,73.42
2022-10-11T07:41:43.084Z,72.70
2022-10-11T07:44:14.281Z,73.47
2022-10-11T07:46:42.888Z,73.04
2022-10-11T07:49:11.582Z,72.07
2022-10-11T07:51:40.139Z,72.23
2022-10-11T07:54:11.059Z,71.91
2022-10-11T07:56:39.756Z,71.84
2022-10-11T07:59:11.346Z,72.49
2022-10-11T08:01:40.104Z,72.50
2022-10-11T08:04:09.745Z,71.49
2022-10-11T08:06:38.293Z,72.04
2022-10-11T08:09:07.357Z,71.37
2022-10-11T08:11:39.073Z,71.74
2022-10-11T08:14:10.862Z,72.14
2022-10-11T08:16:40.734Z,72.17
2022-10-11T08:19:11.143Z,71.84
2022-10-11T08:21:39.763Z,71.41
2022-10-11T08:24:08.869Z,71.16
2022-10-11T08:26:38.741Z,71.70
2022-10-11T08:29:07.551Z,71.51
2022-10-11T08:31:39.851Z,70.85
2022-10-11T08:34:08.386Z,70.69
2022-10-11T08:36:37.369Z,71.35
2022-10-11T08:39:06.672Z,70.40
2022-10-11T08:41:41.823Z,70.55
2022-10-11T08:44:27.862Z,70.27
2022-10-11T08:47:04.283Z,69.97
2022-10-11T08:49:34.748Z,70.32
2022-10-11T08:52:10.614Z,69.62
2022-10-11T08:54:44.906Z,69.47
2022-10-11T08:57:18.039Z,65.22
2022-10-11T08:59:49.779Z,62.90
2022-10-11T09:02:49.245Z,60.68
2022-10-11T09:05:20.087Z,61.24
2022-10-11T09:08:01.278Z,60.92
2022-10-11T09:10:49.184Z,61.67
2022-10-11T09:13:41.154Z,63.18
2022-10-11T09:16:21.988Z,63.71
2022-10-11T09:19:05.091Z,64.89
2022-10-11T09:21:42.071Z,65.07
2022-10-11T09:24:33.311Z,65.07
2022-10-11T09:27:11.159Z,65.49
2022-10-11T09:29:50.855Z,65.31
2022-10-11T09:32:20.921Z,65.91
2022-10-11T09:34:57.362Z,65.98
2022-10-11T09:37:35.141Z,65.83
2022-10-11T09:40:17.957Z,66.15
2022-10-11T09:42:46.592Z,66.19
2022-10-11T09:45:21.149Z,66.40
2022-10-11T09:47:52.284Z,66.35
2022-10-11T09:50:25.277Z,66.29
2022-10-11T09:52:56.326Z,66.35
2022-10-11T09:55:35.065Z,66.77
2022-10-11T09:58:22.660Z,66.41
2022-10-11T10:01:05.231Z,66.44
2022-10-11T10:03:39.627Z,66.31
2022-10-11T10:06:12.845Z,66.33
2022-10-11T10:08:42.576Z,66.19
2022-10-11T10:11:12.300Z,66.10
2022-10-11T10:13:45.738Z,66.73
2022-10-11T10:16:27.114Z,66.89
2022-10-11T10:19:00.226Z,66.48
2022-10-11T10:21:33.641Z,66.62
2022-10-11T10:24:05.854Z,66.16
2022-10-11T10:26:39.477Z,65.58
2022-10-11T10:29:18.105Z,65.46
2022-10-11T10:32:13.503Z,65.00
2022-10-11T10:34:56.515Z,64.98
2022-10-11T10:37:29.947Z,64.82
2022-10-11T10:40:06.811Z,64.20
2022-10-11T10:42:35.681Z,63.85
2022-10-11T10:45:12.192Z,63.58
2022-10-11T10:48:11.301Z,64.06
2022-10-11T10:50:53.810Z,64.40
2022-10-11T10:53:30.960Z,64.55
2022-10-11T10:56:06.284Z,64.30
2022-10-11T10:58:49.340Z,63.91
2022-10-11T11:01:22.751Z,63.00
2022-10-11T11:04:00.019Z,62.81
2022-10-11T11:06:37.550Z,62.55
2022-10-11T11:09:24.111Z,62.56
2022-10-11T11:12:02.064Z,62.64
2022-10-11T11:14:44.341Z,62.21
2022-10-11T11:17:26.233Z,62.08
2022-10-11T11:20:06.597Z,60.89
2022-10-11T11:22:45.323Z,61.28
2022-10-11T11:25:27.203Z,61.01
2022-10-11T11:28:09.225Z,60.71
2022-10-11T11:30:48.407Z,60.17
2022-10-11T11:33:28.288Z,59.78
2022-10-11T11:36:02.740Z,59.68
2022-10-11T11:38:42.812Z,59.68
2022-10-11T11:41:17.274Z,59.53
2022-10-11T11:44:02.224Z,59.43
2022-10-11T11:46:43.275Z,59.46
2022-10-11T11:49:17.925Z,59.20
2022-10-11T11:51:47.535Z,58.83
2022-10-11T11:54:31.758Z,57.38
2022-10-11T11:57:08.779Z,57.23
2022-10-11T11:59:45.572Z,56.70
2022-10-11T12:02:32.197Z,57.33
2022-10-11T12:05:01.074Z,57.19
2022-10-11T12:07:46.199Z,57.68
2022-10-11T12:10:27.621Z,57.51
2022-10-11T12:13:16.564Z,57.78
2022-10-11T12:16:12.418Z,58.08
2022-10-11T12:18:54.123Z,58.62
2022-10-11T12:21:30.709Z,58.18
2022-10-11T12:24:01.491Z,58.59
2022-10-11T12:26:40.133Z,58.87
2022-10-11T12:29:43.271Z,58.84
2022-10-11T12:32:50.423Z,58.30
2022-10-11T12:36:04.084Z,58.39
2022-10-11T12:38:37.296Z,58.17
2022-10-11T12:41:49.047Z,58.36
2022-10-11T12:44:25.923Z,58.87
2022-10-11T12:47:26.040Z,59.04
2022-10-11T12:50:10.120Z,58.89
2022-10-11T12:52:50.089Z,58.16
2022-10-11T12:55:38.929Z,57.90
2022-10-11T12:58:40.969Z,58.08
2022-10-11T13:01:18.021Z,58.02
2022-10-11T13:03:50.327Z,57.37
2022-10-11T13:06:24.241Z,57.74
2022-10-11T13:08:56.507Z,57.87
2022-10-11T13:11:36.466Z,57.42
2022-10-11T13:14:10.772Z,57.69
2022-10-11T13:16:57.377Z,57.29
2022-10-11T13:19:28.166Z,57.02
2022-10-11T13:22:00.132Z,57.09
2022-10-11T13:24:37.273Z,56.90
2022-10-11T13:27:12.670Z,57.70
2022-10-11T13:29:45.394Z,58.00
2022-10-11T13:32:19.611Z,57.72
2022-10-11T13:34:52.536Z,57.84
2022-10-11T13:37:24.181Z,57.50
2022-10-11T13:39:54.912Z,58.09
2022-10-11T13:42:30.846Z,57.67
2022-10-11T13:45:01.371Z,58.21
2022-10-11T13:47:31.731Z,57.52
2022-10-11T13:50:18.552Z,58.03
2022-10-11T13:52:55.547Z,57.39
2022-10-11T13:55:26.984Z,57.57
2022-10-11T13:57:56.451Z,58.20
2022-10-11T14:00:30.897Z,57.32
2022-10-11T14:03:04.096Z,57.35
2022-10-11T14:05:37.730Z,57.10
2022-10-11T14:08:24.482Z,57.68
2022-10-11T14:10:57.170Z,57.82
2022-10-11T14:13:35.558Z,57.09
2022-10-11T14:16:09.895Z,57.22
2022-10-11T14:18:49.702Z,57.21
2022-10-11T14:21:26.496Z,56.86
2022-10-11T14:23:57.485Z,57.46
2022-10-11T14:26:31.208Z,57.33
2022-10-11T14:29:02.386Z,57.21
2022-10-11T14:31:41.780Z,57.35
2022-10-11T14:34:18.104Z,57.70
2022-10-11T14:36:47.818Z,57.14
2022-10-11T14:39:21.829Z,57.79
2022-10-11T14:41:53.702Z,57.35
2022-10-11T14:44:24.023Z,58.34
2022-10-11T14:46:54.758Z,57.81
2022-10-11T14:49:27.660Z,58.42
2022-10-11T14:51:58.124Z,58.60
2022-10-11T14:54:31.285Z,58.55
2022-10-11T14:57:03.239Z,57.90
2022-10-11T14:59:35.782Z,57.74
2022-10-11T15:02:06.968Z,58.05
2022-10-11T15:04:36.686Z,57.87
2022-10-11T15:07:06.654Z,58.35
2022-10-11T15:09:35.239Z,58.42
2022-10-11T15:12:05.050Z,58.00
2022-10-11T15:14:36.304Z,58.53
2022-10-11T15:17:05.620Z,58.62
2022-10-11T15:19:34.306Z,58.33
2022-10-11T15:22:05.431Z,57.98
2022-10-11T15:24:34.045Z,58.80
2022-10-11T15:27:02.809Z,58.15
2022-10-11T15:29:35.728Z,58.25
2022-10-11T15:32:04.920Z,58.64
2022-10-11T15:34:33.524Z,58.88
2022-10-11T15:37:02.091Z,59.01
2022-10-11T15:39:33.102Z,59.34
2022-10-11T15:42:01.704Z,58.98
2022-10-11T15:44:31.398Z,58.73
2022-10-11T15:47:00.083Z,58.72
2022-10-11T15:49:28.848Z,58.64
2022-10-11T15:52:01.231Z,59.55
2022-10-11T15:54:31.456Z,59.28
2022-10-11T15:57:00.580Z,59.16
2022-10-11T15:59:30.718Z,59.36
2022-10-11T16:01:59.614Z,58.97
2022-10-11T16:04:28.650Z,58.94
2022-10-11T16:07:00.645Z,59.12
2022-10-11T16:09:30.732Z,59.09
2022-10-11T16:11:59.464Z,59.08
2022-10-11T16:14:28.332Z,59.38
2022-10-11T16:17:02.057Z,59.93
2022-10-11T16:19:32.187Z,60.22
2022-10-11T16:22:10.052Z,59.57
2022-10-11T16:24:39.364Z,60.03
2022-10-11T16:27:07.945Z,60.16
2022-10-11T16:29:36.927Z,59.82
2022-10-11T16:32:06.174Z,60.79
2022-10-11T16:34:34.836Z,59.58
2022-10-11T16:37:03.477Z,60.02
2022-10-11T16:39:34.688Z,60.64
2022-10-11T16:42:05.832Z,60.36
2022-10-11T16:44:37.300Z,60.46
2022-10-11T16:47:07.059Z,61.08
2022-10-11T16:49:36.198Z,60.84
2022-10-11T16:52:05.045Z,60.63
2022-10-11T16:54:33.768Z,61.24
2022-10-11T16:57:02.435Z,60.66
2022-10-11T16:59:33.308Z,60.84
2022-10-11T17:02:04.534Z,60.58
2022-10-11T17:04:33.829Z,61.11
2022-10-11T17:07:02.456Z,61.02
2022-10-11T17:09:33.258Z,61.74
2022-10-11T17:12:01.812Z,61.56
2022-10-11T17:14:33.442Z,62.10
2022-10-11T17:17:02.284Z,61.92
2022-10-11T17:19:31.868Z,62.21
2022-10-11T17:22:00.592Z,61.68
2022-10-11T17:24:29.226Z,62.05
2022-10-11T17:26:58.631Z,62.33
2022-10-11T17:29:27.128Z,62.49
2022-10-11T17:31:55.722Z,62.62
2022-10-11T17:34:24.430Z,62.64
2022-10-11T17:36:53.080Z,62.71
2022-10-11T17:39:23.301Z,62.77
2022-10-11T17:41:52.448Z,63.03
2022-10-11T17:44:21.502Z,62.82
2022-10-11T17:46:52.322Z,62.86
2022-10-11T17:49:20.940Z,63.03
2022-10-11T17:51:49.624Z,63.14
2022-10-11T17:54:20.815Z,63.30
2022-10-11T17:56:54.249Z,63.16
2022-10-11T17:59:26.821Z,63.67
2022-10-11T18:01:56.070Z,63.78
2022-10-11T18:04:26.660Z,63.94
2022-10-11T18:06:55.824Z,63.79
2022-10-11T18:09:24.590Z,63.88
2022-10-11T18:11:53.948Z,64.33
2022-10-11T18:14:23.953Z,64.26
2022-10-11T18:16:53.495Z,63.93
2022-10-11T18:19:22.205Z,64.39
2022-10-11T18:21:50.630Z,64.39
2022-10-11T18:24:21.358Z,64.24
2022-10-11T18:26:49.939Z,64.39
2022-10-11T18:29:19.817Z,64.64
2022-10-11T18:31:48.464Z,65.07
2022-10-11T18:34:16.973Z,64.82
2022-10-11T18:36:45.454Z,64.92
2022-10-11T18:39:15.324Z,64.89
2022-10-11T18:41:44.180Z,65.07
2022-10-11T18:44:15.083Z,64.95
2022-10-11T18:46:44.681Z,65.53
2022-10-11T18:49:14.330Z,65.01
2022-10-11T18:51:44.914Z,65.11
2022-10-11T18:54:16.796Z,65.04
2022-10-11T18:56:49.015Z,65.26
2022-10-11T18:59:17.675Z,65.36
2022-10-11T19:01:46.291Z,65.34
2022-10-11T19:04:15.867Z,65.12
2022-10-11T19:06:47.473Z,65.71
2022-10-11T19:09:21.069Z,65.56
2022-10-11T19:11:50.554Z,65.92
2022-10-11T19:14:22.779Z,66.15
2022-10-11T19:16:55.146Z,65.81
2022-10-11T19:19:26.664Z,65.62
2022-10-11T19:21:55.776Z,66.06
2022-10-11T19:24:26.709Z,66.28
2022-10-11T19:26:59.866Z,66.31
2022-10-11T19:29:32.674Z,66.19
2022-10-11T19:32:03.000Z,66.33
2022-10-11T19:34:33.944Z,66.02
2022-10-11T19:37:03.611Z,66.54
2022-10-11T19:39:32.930Z,66.33
2022-10-11T19:42:02.053Z,66.29
2022-10-11T19:44:37.272Z,66.39
2022-10-11T19:47:09.467Z,66.83
2022-10-11T19:49:40.753Z,66.95
2022-10-11T19:52:09.560Z,66.68
2022-10-11T19:54:38.146Z,66.92
2022-10-11T19:57:08.206Z,66.66
2022-10-11T19:59:36.725Z,67.04
2022-10-11T20:02:05.373Z,67.65
2022-10-11T20:04:52.722Z,67.58
2022-10-11T20:07:21.624Z,67.57
2022-10-11T20:09:50.036Z,67.16
2022-10-11T20:12:18.725Z,67.28
2022-10-11T20:14:47.134Z,67.27
2022-10-11T20:17:15.630Z,67.19
2022-10-11T20:19:44.107Z,67.45
2022-10-11T20:22:12.724Z,67.54
2022-10-11T20:24:41.207Z,67.53
2022-10-11T20:27:10.146Z,67.64
2022-10-11T20:29:38.575Z,67.97
2022-10-11T20:32:07.015Z,67.86
2022-10-11T20:34:38.899Z,67.59
2022-10-11T20:37:07.470Z,68.26
2022-10-11T20:39:38.330Z,67.64
2022-10-11T20:42:06.799Z,67.97
2022-10-11T20:44:35.393Z,68.36
2022-10-11T20:47:04.395Z,68.02
2022-10-11T20:49:33.193Z,67.85
2022-10-11T20:52:02.011Z,68.72
2022-10-11T20:54:35.124Z,68.01
2022-10-11T20:57:03.997Z,68.68
2022-10-11T20:59:32.742Z,68.61
2022-10-11T21:02:01.423Z,68.10
2022-10-11T21:04:33.040Z,68.16
2022-10-11T21:07:01.489Z,68.52
2022-10-11T21:09:30.878Z,68.08
2022-10-11T21:12:01.675Z,68.64
2022-10-11T21:14:32.535Z,68.19
2022-10-11T21:17:01.260Z,69.02
2022-10-11T21:19:32.450Z,68.28
2022-10-11T21:22:01.143Z,68.90
2022-10-11T21:24:34.250Z,68.55
2022-10-11T21:27:04.993Z,69.25
2022-10-11T21:29:33.640Z,69.04
2022-10-11T21:32:04.884Z,68.68
2022-10-11T21:34:34.204Z,68.96
2022-10-11T21:37:02.871Z,69.56
2022-10-11T21:39:33.842Z,69.01
2022-10-11T21:42:04.954Z,68.67
2022-10-11T21:44:35.939Z,68.61
2022-10-11T21:47:08.208Z,69.17
2022-10-11T21:49:37.258Z,68.72
2022-10-11T21:52:06.080Z,69.25
2022-10-11T21:54:34.860Z,69.72
2022-10-11T21:57:06.048Z,69.42
2022-10-11T21:59:34.723Z,69.66
2022-10-11T22:02:03.378Z,69.47
2022-10-11T22:04:33.420Z,69.91
2022-10-11T22:07:05.002Z,69.85
2022-10-11T22:09:34.819Z,69.44
2022-10-11T22:12:05.065Z,70.03
2022-10-11T22:14:34.088Z,69.41
2022-10-11T22:17:02.857Z,69.52
2022-10-11T22:19:34.444Z,69.52
2022-10-11T22:22:03.190Z,70.26
2022-10-11T22:24:33.524Z,69.96
2022-10-11T22:27:02.609Z,69.55
2022-10-11T22:29:34.284Z,70.20
2022-10-11T22:32:04.952Z,70.27
2022-10-11T22:34:34.302Z,70.28
2022-10-11T22:37:04.128Z,70.01
2022-10-11T22:39:33.371Z,70.39
2022-10-11T22:42:01.897Z,69.92
2022-10-11T22:44:31.955Z,69.47
2022-10-11T22:47:00.912Z,70.50
2022-10-11T22:49:30.872Z,70.00
2022-10-11T22:52:00.125Z,70.51
2022-10-11T22:54:28.823Z,69.88
2022-10-11T22:56:58.000Z,70.19
2022-10-11T22:59:26.699Z,70.13
2022-10-11T23:01:55.987Z,70.21
2022-10-11T23:04:24.671Z,69.96
2022-10-11T23:06:53.360Z,70.71
2022-10-11T23:09:21.923Z,70.97
2022-10-11T23:11:50.550Z,70.09
2022-10-11T23:14:19.239Z,70.16
2022-10-11T23:16:50.095Z,70.92
2022-10-11T23:19:19.197Z,70.24
2022-10-11T23:21:50.513Z,70.16
2022-10-11T23:24:19.204Z,70.11
2022-10-11T23:26:48.199Z,70.65
2022-10-11T23:29:17.213Z,70.34
2022-10-11T23:31:46.674Z,70.32
2022-10-11T23:34:17.543Z,70.58
2022-10-11T23:36:46.200Z,70.33
2022-10-11T23:39:15.625Z,71.23
2022-10-11T23:41:44.306Z,71.37
2022-10-11T23:44:12.959Z,70.72
2022-10-11T23:46:41.606Z,70.73
2022-10-11T23:49:10.596Z,70.55
2022-10-11T23:51:39.449Z,71.48
2022-10-11T23:54:08.358Z,71.22
2022-10-11T23:56:36.818Z,70.57
2022-10-11T23:59:06.327Z,71.27
